Time;durP1;ratioP1;P1;durP2;ratioP2;P2;SDS_P1;SDS_P2;PMS_P1;PMS_P2;Temp;Humidity;BMP_temperature;BMP_pressure;BME280_temperature;BME280_humidity;BME280_pressure;Samples;Min_cycle;Max_cycle;Signal;HPM_P1;HPM_P2
2024/04/04 00:01:39;;;;;;;0.70;0.70;;;16.10;92.50;;;;;;5085229;28;20204;-77
2024/04/04 00:04:05;;;;;;;0.30;0.20;;;16.10;92.50;;;;;;5083264;28;20489;-78
2024/04/04 00:06:30;;;;;;;0.30;0.20;;;16.10;92.50;;;;;;5084970;28;20184;-78
2024/04/04 00:08:56;;;;;;;0.30;0.20;;;16.20;92.60;;;;;;5084787;28;20196;-78
2024/04/04 00:11:22;;;;;;;0.30;0.20;;;16.20;92.50;;;;;;5085394;28;20227;-75
2024/04/04 00:13:47;;;;;;;0.30;0.20;;;16.30;92.50;;;;;;5083435;28;20688;-75
2024/04/04 00:16:14;;;;;;;0.40;0.33;;;16.30;92.60;;;;;;5083525;28;20176;-77
2024/04/04 00:18:42;;;;;;;2.60;2.50;;;16.30;92.60;;;;;;5084613;28;20247;-77
2024/04/04 00:21:08;;;;;;;0.97;0.63;;;16.30;92.60;;;;;;5087828;28;20499;-75
2024/04/04 00:23:33;;;;;;;0.30;0.20;;;16.30;92.60;;;;;;5088049;28;20587;-77
2024/04/04 00:25:59;;;;;;;0.30;0.20;;;16.30;92.60;;;;;;5087224;28;20832;-76
2024/04/04 00:28:26;;;;;;;0.30;0.20;;;16.20;92.70;;;;;;5088105;28;20200;-75
2024/04/04 00:30:52;;;;;;;0.30;0.20;;;16.20;92.70;;;;;;5087020;28;20433;-77
2024/04/04 00:33:17;;;;;;;0.30;0.20;;;16.10;92.80;;;;;;5088009;28;20425;-75
2024/04/04 00:35:43;;;;;;;0.30;0.20;;;16.10;92.80;;;;;;5087150;28;20191;-77
2024/04/04 00:38:09;;;;;;;0.30;0.20;;;16.00;92.80;;;;;;5088074;28;20192;-77
2024/04/04 00:40:37;;;;;;;0.30;0.20;;;16.00;92.90;;;;;;5088134;28;20215;-77
2024/04/04 00:43:03;;;;;;;0.30;0.20;;;15.90;92.80;;;;;;5086642;28;20245;-75
2024/04/04 00:45:30;;;;;;;0.30;0.20;;;15.90;92.90;;;;;;5087751;28;20424;-77
2024/04/04 00:47:57;;;;;;;0.30;0.20;;;15.90;92.80;;;;;;5085944;28;20519;-75
2024/04/04 00:50:23;;;;;;;0.30;0.20;;;15.90;92.80;;;;;;5086973;28;20519;-77
2024/04/04 00:52:50;;;;;;;0.30;0.20;;;15.80;92.80;;;;;;5087543;28;20544;-77
2024/04/04 00:55:16;;;;;;;0.40;0.33;;;15.80;92.80;;;;;;5088207;28;20176;-75
2024/04/04 00:57:46;;;;;;;0.30;0.20;;;15.80;92.70;;;;;;5087454;28;20877;-77
2024/04/04 01:00:13;;;;;;;0.40;0.40;;;15.90;92.70;;;;;;5086645;28;20472;-76
2024/04/04 01:02:39;;;;;;;0.30;0.20;;;15.90;92.70;;;;;;5087356;28;20762;-75
2024/04/04 01:05:05;;;;;;;0.30;0.20;;;15.90;92.70;;;;;;5088205;28;20420;-75
2024/04/04 01:07:33;;;;;;;0.30;0.20;;;15.90;92.70;;;;;;5087166;28;20725;-75
2024/04/04 01:10:07;;;;;;;0.30;0.20;;;15.90;92.60;;;;;;5088101;28;20421;-77
2024/04/04 01:12:32;;;;;;;1.20;1.10;;;15.90;92.60;;;;;;5087324;28;20417;-75
2024/04/04 01:14:58;;;;;;;0.30;0.20;;;15.90;92.60;;;;;;5086272;28;20948;-75
2024/04/04 01:17:24;;;;;;;0.30;0.20;;;15.90;92.70;;;;;;5087185;28;20199;-75
2024/04/04 01:19:51;;;;;;;0.30;0.20;;;15.90;92.60;;;;;;5087581;28;20196;-78
2024/04/04 01:22:17;;;;;;;0.30;0.20;;;15.90;92.60;;;;;;5087153;28;20412;-75
2024/04/04 01:24:42;;;;;;;0.30;0.20;;;15.90;92.60;;;;;;5086981;28;20429;-75
2024/04/04 01:27:08;;;;;;;0.30;0.20;;;15.90;92.60;;;;;;5087228;28;20172;-75
2024/04/04 01:29:34;;;;;;;0.30;0.20;;;15.90;92.70;;;;;;5085897;28;20202;-75
2024/04/04 01:31:59;;;;;;;0.30;0.20;;;15.90;92.60;;;;;;5085581;28;20203;-75
2024/04/04 01:34:25;;;;;;;0.30;0.20;;;15.90;92.70;;;;;;5085772;28;20200;-77
2024/04/04 01:36:53;;;;;;;0.30;0.20;;;15.90;92.80;;;;;;5085881;28;20176;-78
2024/04/04 01:39:18;;;;;;;0.30;0.20;;;15.90;92.80;;;;;;5086884;28;20189;-75
2024/04/04 01:41:46;;;;;;;0.40;0.40;;;15.80;92.80;;;;;;5086911;28;20468;-77
2024/04/04 01:44:11;;;;;;;0.30;0.20;;;15.80;92.80;;;;;;5086949;28;20669;-76
2024/04/04 01:46:37;;;;;;;0.30;0.20;;;15.80;92.90;;;;;;5087065;28;20397;-75
2024/04/04 01:49:03;;;;;;;0.70;0.70;;;15.80;93.00;;;;;;5084140;28;20553;-75
2024/04/04 01:51:28;;;;;;;0.30;0.20;;;15.70;92.90;;;;;;5086889;28;20172;-75
2024/04/04 01:53:54;;;;;;;0.30;0.20;;;15.70;93.00;;;;;;5084923;28;20265;-75
2024/04/04 01:56:19;;;;;;;0.30;0.20;;;15.70;92.90;;;;;;5086918;28;20773;-75
2024/04/04 01:58:45;;;;;;;0.30;0.20;;;15.70;92.90;;;;;;5085050;28;20481;-75
2024/04/04 02:01:11;;;;;;;0.30;0.20;;;15.70;92.90;;;;;;5086678;28;20219;-77
2024/04/04 02:03:36;;;;;;;0.30;0.20;;;15.70;93.00;;;;;;5086191;28;20219;-77
2024/04/04 02:06:02;;;;;;;0.30;0.20;;;15.70;93.00;;;;;;5086840;28;20187;-77
2024/04/04 02:08:28;;;;;;;0.30;0.20;;;15.70;93.10;;;;;;5084670;28;20754;-77
2024/04/04 02:10:53;;;;;;;0.50;0.40;;;15.70;93.10;;;;;;5086582;28;20169;-77
2024/04/04 02:13:19;;;;;;;0.30;0.20;;;15.70;93.10;;;;;;5086108;28;20211;-77
2024/04/04 02:15:45;;;;;;;0.30;0.20;;;15.60;93.10;;;;;;5086861;28;20520;-74
2024/04/04 02:18:11;;;;;;;0.30;0.20;;;15.60;93.20;;;;;;5086519;28;20671;-77
2024/04/04 02:20:37;;;;;;;0.30;0.20;;;15.70;93.40;;;;;;5086600;28;20220;-77
2024/04/04 02:23:03;;;;;;;0.30;0.20;;;15.70;93.30;;;;;;5085818;28;20861;-77
2024/04/04 02:25:29;;;;;;;0.30;0.20;;;15.70;93.20;;;;;;5086641;28;20205;-77
2024/04/04 02:27:54;;;;;;;0.30;0.20;;;15.70;93.20;;;;;;5085784;28;20969;-77
2024/04/04 02:30:20;;;;;;;0.30;0.20;;;15.70;93.20;;;;;;5086348;28;20172;-77
2024/04/04 02:32:48;;;;;;;0.30;0.20;;;15.70;93.20;;;;;;5085764;28;20200;-75
2024/04/04 02:35:14;;;;;;;0.30;0.20;;;15.70;93.30;;;;;;5084839;28;20479;-75
2024/04/04 02:37:39;;;;;;;0.30;0.20;;;15.70;93.30;;;;;;5085844;28;20448;-76
2024/04/04 02:40:05;;;;;;;0.30;0.20;;;15.70;93.40;;;;;;5086090;28;20515;-75
2024/04/04 02:42:31;;;;;;;0.70;0.50;;;15.70;93.40;;;;;;5085191;28;20211;-77
2024/04/04 02:44:57;;;;;;;0.30;0.20;;;15.70;93.50;;;;;;5086102;28;20409;-75
2024/04/04 02:47:22;;;;;;;0.30;0.20;;;15.70;93.50;;;;;;5085054;28;20204;-75
2024/04/04 02:49:50;;;;;;;0.30;0.30;;;15.70;93.60;;;;;;5085719;28;20176;-75
2024/04/04 02:52:15;;;;;;;0.30;0.20;;;15.60;93.60;;;;;;5085280;28;20229;-75
2024/04/04 02:54:41;;;;;;;0.30;0.20;;;15.60;93.80;;;;;;5086051;28;20417;-75
2024/04/04 02:57:08;;;;;;;0.30;0.30;;;15.60;93.80;;;;;;5085253;28;20176;-75
2024/04/04 02:59:33;;;;;;;0.70;0.70;;;15.50;93.90;;;;;;5085848;28;20206;-77
2024/04/04 03:01:59;;;;;;;0.30;0.20;;;15.50;93.90;;;;;;5083787;28;20464;-74
2024/04/04 03:04:25;;;;;;;0.30;0.20;;;15.50;94.00;;;;;;5085976;28;20247;-77
2024/04/04 03:06:53;;;;;;;0.30;0.20;;;15.40;94.10;;;;;;5086130;28;20171;-76
2024/04/04 03:09:19;;;;;;;1.90;1.57;;;15.40;94.10;;;;;;5085268;28;20192;-77
2024/04/04 03:11:46;;;;;;;0.30;0.20;;;15.50;94.00;;;;;;5085762;28;20905;-75
2024/04/04 03:14:11;;;;;;;0.30;0.20;;;15.50;94.00;;;;;;5083998;28;20463;-75
2024/04/04 03:16:37;;;;;;;0.30;0.20;;;15.60;93.90;;;;;;5085822;28;20196;-77
2024/04/04 03:19:04;;;;;;;0.30;0.20;;;15.60;93.90;;;;;;5085370;28;20271;-75
2024/04/04 03:21:29;;;;;;;0.30;0.20;;;15.60;93.90;;;;;;5085342;28;20210;-77
2024/04/04 03:23:55;;;;;;;0.40;0.40;;;15.60;93.90;;;;;;5084933;28;20929;-78
2024/04/04 03:26:21;;;;;;;0.30;0.20;;;15.60;93.90;;;;;;5084409;28;20633;-75
2024/04/04 03:28:46;;;;;;;0.30;0.20;;;15.70;93.90;;;;;;5085426;28;20196;-78
2024/04/04 03:31:12;;;;;;;0.30;0.20;;;15.70;93.90;;;;;;5084301;28;20180;-78
2024/04/04 03:33:38;;;;;;;1.27;1.13;;;15.60;93.90;;;;;;5085161;28;20821;-75
2024/04/04 03:36:04;;;;;;;0.30;0.20;;;15.70;93.90;;;;;;5085502;28;20558;-77
2024/04/04 03:38:30;;;;;;;0.30;0.30;;;15.60;94.00;;;;;;5085043;28;20461;-77
2024/04/04 03:40:56;;;;;;;0.30;0.20;;;15.70;93.90;;;;;;5085372;28;20456;-75
2024/04/04 03:43:22;;;;;;;0.30;0.20;;;15.70;94.00;;;;;;5083761;28;20988;-76
2024/04/04 03:45:48;;;;;;;0.30;0.20;;;15.70;93.90;;;;;;5085751;28;20193;-75
2024/04/04 03:48:17;;;;;;;0.40;0.30;;;15.70;93.90;;;;;;5082957;28;21156;-76
2024/04/04 03:50:43;;;;;;;0.30;0.20;;;15.60;93.90;;;;;;5083443;28;20574;-75
2024/04/04 03:53:09;;;;;;;0.30;0.20;;;15.60;93.90;;;;;;5083676;28;20440;-76
2024/04/04 03:55:34;;;;;;;1.33;1.33;;;15.60;93.90;;;;;;5086913;28;20173;-75
2024/04/04 03:58:00;;;;;;;0.30;0.20;;;15.50;93.90;;;;;;5088576;28;20231;-77
2024/04/04 04:00:26;;;;;;;0.30;0.20;;;15.50;93.90;;;;;;5089599;28;20205;-77
2024/04/04 04:02:51;;;;;;;0.30;0.20;;;15.50;94.10;;;;;;5087198;28;20207;-77
2024/04/04 04:05:17;;;;;;;0.30;0.20;;;15.40;94.10;;;;;;5087434;28;20241;-76
2024/04/04 04:07:42;;;;;;;0.30;0.20;;;15.40;94.20;;;;;;5088697;28;20765;-78
2024/04/04 04:10:08;;;;;;;0.40;0.30;;;15.30;94.20;;;;;;5088415;28;20203;-77
2024/04/04 04:12:34;;;;;;;0.30;0.20;;;15.30;94.30;;;;;;5088309;28;20316;-75
2024/04/04 04:15:00;;;;;;;0.30;0.20;;;15.20;94.40;;;;;;5088840;28;20176;-75
2024/04/04 04:17:26;;;;;;;0.30;0.20;;;15.20;94.50;;;;;;5088161;28;20420;-78
2024/04/04 04:19:51;;;;;;;0.30;0.20;;;15.20;94.50;;;;;;5087179;28;20186;-75
2024/04/04 04:22:17;;;;;;;0.30;0.20;;;15.10;94.50;;;;;;5088167;28;21219;-75
2024/04/04 04:24:43;;;;;;;0.30;0.20;;;15.10;94.60;;;;;;5088482;28;20181;-77
2024/04/04 04:27:08;;;;;;;0.30;0.20;;;15.00;94.70;;;;;;5086687;28;20208;-77
2024/04/04 04:29:34;;;;;;;0.30;0.20;;;15.00;94.80;;;;;;5086791;28;20204;-75
2024/04/04 04:32:00;;;;;;;0.30;0.20;;;15.00;94.90;;;;;;5086541;28;20407;-77
2024/04/04 04:34:26;;;;;;;0.30;0.20;;;14.90;94.90;;;;;;5086819;28;20216;-76
2024/04/04 04:37:00;;;;;;;0.30;0.20;;;14.90;95.10;;;;;;5078761;28;21112;-74
2024/04/04 04:39:28;;;;;;;0.30;0.30;;;14.80;95.10;;;;;;5086056;28;20207;-75
2024/04/04 04:41:54;;;;;;;0.30;0.20;;;14.80;95.20;;;;;;5086905;28;20452;-77
2024/04/04 04:44:19;;;;;;;0.30;0.20;;;14.80;95.20;;;;;;5087344;28;20962;-78
2024/04/04 04:46:45;;;;;;;0.30;0.20;;;14.80;95.20;;;;;;5085926;28;20173;-75
2024/04/04 04:49:11;;;;;;;0.30;0.20;;;14.80;95.20;;;;;;5084627;28;20204;-81
2024/04/04 04:51:36;;;;;;;0.30;0.20;;;14.80;95.20;;;;;;5086149;28;20198;-75
2024/04/04 04:54:03;;;;;;;0.30;0.20;;;14.80;95.30;;;;;;5087348;28;20208;-74
2024/04/04 04:56:28;;;;;;;0.30;0.30;;;14.80;95.30;;;;;;5088020;28;20567;-82
2024/04/04 04:58:54;;;;;;;0.30;0.20;;;14.80;95.30;;;;;;5085692;28;20562;-74
2024/04/04 05:01:19;;;;;;;0.30;0.30;;;14.80;95.30;;;;;;5087422;28;20211;-78
2024/04/04 05:03:45;;;;;;;0.40;0.40;;;14.80;95.40;;;;;;5085803;28;20684;-77
2024/04/04 05:06:11;;;;;;;0.30;0.20;;;14.90;95.40;;;;;;5087258;28;20679;-76
2024/04/04 05:08:37;;;;;;;0.30;0.20;;;14.90;95.30;;;;;;5085830;28;20189;-74
2024/04/04 05:11:04;;;;;;;0.30;0.30;;;14.90;95.30;;;;;;5087303;28;20641;-75
2024/04/04 05:13:30;;;;;;;0.30;0.20;;;14.90;95.30;;;;;;5085602;28;20925;-79
2024/04/04 05:15:56;;;;;;;0.30;0.20;;;14.80;95.40;;;;;;5085299;28;20492;-75
2024/04/04 05:18:22;;;;;;;0.30;0.20;;;14.90;95.50;;;;;;5084208;28;20200;-75
2024/04/04 05:20:48;;;;;;;0.30;0.30;;;14.80;95.70;;;;;;5083985;28;20265;-75
2024/04/04 05:23:13;;;;;;;0.50;0.50;;;14.80;95.90;;;;;;5081507;28;20464;-75
2024/04/04 05:25:40;;;;;;;0.30;0.20;;;14.70;96.10;;;;;;5082236;28;20187;-75
2024/04/04 05:28:07;;;;;;;0.30;0.20;;;14.60;96.30;;;;;;5081818;28;20287;-75
2024/04/04 05:30:32;;;;;;;1.23;0.50;;;14.60;96.50;;;;;;5083907;28;20452;-74
2024/04/04 05:33:02;;;;;;;0.67;0.67;;;14.50;96.70;;;;;;5082156;28;20421;-75
2024/04/04 05:35:30;;;;;;;0.30;0.20;;;14.50;96.80;;;;;;5086472;28;20184;-75
2024/04/04 05:37:56;;;;;;;0.30;0.20;;;14.50;97.00;;;;;;5083894;28;20741;-75
2024/04/04 05:40:23;;;;;;;0.30;0.20;;;14.40;97.30;;;;;;5082405;28;20464;-75
2024/04/04 05:42:49;;;;;;;0.30;0.20;;;14.40;97.20;;;;;;5083124;28;20180;-75
2024/04/04 05:45:15;;;;;;;0.30;0.20;;;14.50;97.40;;;;;;5081175;28;20712;-75
2024/04/04 05:47:40;;;;;;;0.40;0.40;;;14.50;97.50;;;;;;5082270;28;20428;-75
2024/04/04 05:50:06;;;;;;;0.30;0.20;;;14.50;97.60;;;;;;5082278;28;20177;-75
2024/04/04 05:52:32;;;;;;;0.30;0.30;;;14.60;97.60;;;;;;5080946;28;20192;-75
2024/04/04 05:54:59;;;;;;;0.30;0.20;;;14.60;97.80;;;;;;5082138;28;20534;-75
2024/04/04 05:57:25;;;;;;;0.30;0.20;;;14.60;97.80;;;;;;5082786;28;20480;-75
2024/04/04 05:59:50;;;;;;;0.30;0.20;;;14.70;98.00;;;;;;5069520;28;20464;-75
2024/04/04 06:02:16;;;;;;;0.30;0.20;;;14.80;98.00;;;;;;5073611;28;20232;-75
2024/04/04 06:04:43;;;;;;;0.30;0.20;;;14.80;98.10;;;;;;5071868;28;20177;-75
2024/04/04 06:07:09;;;;;;;0.30;0.30;;;14.90;98.10;;;;;;5072681;28;20177;-79
2024/04/04 06:09:34;;;;;;;0.53;0.53;;;15.00;98.10;;;;;;5075829;28;20401;-79
2024/04/04 06:12:00;;;;;;;0.30;0.20;;;15.10;98.00;;;;;;5076113;28;20482;-80
2024/04/04 06:14:26;;;;;;;0.30;0.20;;;15.30;98.10;;;;;;5084998;28;20214;-79
2024/04/04 06:16:51;;;;;;;0.40;0.30;;;15.40;97.90;;;;;;5085602;28;20177;-79
2024/04/04 06:19:17;;;;;;;0.30;0.20;;;15.40;97.80;;;;;;5083057;28;20192;-79
2024/04/04 06:21:43;;;;;;;0.30;0.20;;;15.50;97.90;;;;;;5100797;28;20219;-79
2024/04/04 06:24:08;;;;;;;0.30;0.20;;;15.40;98.00;;;;;;5099150;28;20207;-78
2024/04/04 06:26:34;;;;;;;0.40;0.20;;;15.60;98.00;;;;;;5077881;28;20709;-78
2024/04/04 06:29:00;;;;;;;0.30;0.20;;;15.70;97.90;;;;;;5082893;28;20234;-78
2024/04/04 06:31:25;;;;;;;0.30;0.20;;;15.90;98.00;;;;;;5081518;28;20191;-78
2024/04/04 06:33:51;;;;;;;0.30;0.20;;;15.90;97.70;;;;;;5082297;28;20192;-78
2024/04/04 06:36:17;;;;;;;0.30;0.20;;;16.00;97.90;;;;;;5083821;28;20188;-74
2024/04/04 06:38:43;;;;;;;0.30;0.20;;;16.00;97.90;;;;;;5083275;28;20424;-74
2024/04/04 06:41:09;;;;;;;0.30;0.20;;;16.00;97.90;;;;;;5083899;28;20216;-74
2024/04/04 06:43:35;;;;;;;0.30;0.20;;;16.00;97.90;;;;;;5080480;28;20567;-74
2024/04/04 06:46:01;;;;;;;0.30;0.20;;;16.10;98.10;;;;;;5079368;28;20524;-74
2024/04/04 06:48:27;;;;;;;2.97;2.77;;;16.10;98.10;;;;;;5074500;28;20272;-74
2024/04/04 06:50:52;;;;;;;0.30;0.20;;;16.20;98.10;;;;;;5063203;28;20794;-74
2024/04/04 06:53:18;;;;;;;0.30;0.30;;;16.30;98.10;;;;;;5065079;28;20192;-77
2024/04/04 06:55:44;;;;;;;1.53;1.03;;;16.40;98.10;;;;;;5076491;28;20261;-75
2024/04/04 06:58:10;;;;;;;0.30;0.20;;;16.50;98.00;;;;;;5063225;28;20255;-77
2024/04/04 07:00:38;;;;;;;0.40;0.30;;;16.50;98.00;;;;;;5063716;28;20461;-78
2024/04/04 07:03:04;;;;;;;0.30;0.20;;;16.70;98.10;;;;;;5064129;28;20193;-75
2024/04/04 07:05:29;;;;;;;0.30;0.30;;;16.80;98.00;;;;;;5064652;28;20460;-79
2024/04/04 07:07:55;;;;;;;0.83;0.70;;;16.80;97.80;;;;;;5064692;28;20433;-74
2024/04/04 07:10:21;;;;;;;0.30;0.20;;;16.90;97.90;;;;;;5065980;28;20703;-78
2024/04/04 07:12:46;;;;;;;0.30;0.20;;;16.90;97.60;;;;;;5079890;28;20205;-74
2024/04/04 07:15:12;;;;;;;0.50;0.50;;;17.00;97.50;;;;;;5081117;28;20540;-78
2024/04/04 07:17:38;;;;;;;0.43;0.37;;;17.10;97.70;;;;;;5081588;28;20248;-74
2024/04/04 07:20:05;;;;;;;0.30;0.20;;;17.10;97.50;;;;;;5078826;28;20501;-77
2024/04/04 07:22:31;;;;;;;0.30;0.23;;;17.10;97.40;;;;;;5080328;28;20192;-75
2024/04/04 07:24:56;;;;;;;0.30;0.20;;;17.20;97.30;;;;;;5080417;28;20458;-75
2024/04/04 07:27:23;;;;;;;0.30;0.30;;;17.10;97.40;;;;;;5077057;28;20192;-74
2024/04/04 07:29:48;;;;;;;0.30;0.20;;;17.10;97.60;;;;;;5080540;28;20246;-74
2024/04/04 07:32:14;;;;;;;0.93;0.93;;;17.10;97.60;;;;;;5077527;28;20558;-78
2024/04/04 07:34:40;;;;;;;0.30;0.20;;;17.20;97.80;;;;;;5081589;28;20915;-78
2024/04/04 07:37:06;;;;;;;2.00;0.83;;;17.20;97.70;;;;;;5085584;28;20234;-74
2024/04/04 07:39:33;;;;;;;0.30;0.20;;;17.30;97.50;;;;;;5084657;28;20421;-74
2024/04/04 07:42:00;;;;;;;0.30;0.20;;;17.30;97.60;;;;;;5081327;28;20505;-78
2024/04/04 07:44:26;;;;;;;0.30;0.20;;;17.30;97.60;;;;;;5083410;28;21016;-75
2024/04/04 07:46:53;;;;;;;0.30;0.20;;;17.40;97.80;;;;;;5085855;28;20441;-75
2024/04/04 07:49:19;;;;;;;0.30;0.30;;;17.50;98.00;;;;;;5084753;28;20447;-78
2024/04/04 07:51:46;;;;;;;0.40;0.30;;;17.60;98.20;;;;;;5074513;28;20421;-75
2024/04/04 07:54:11;;;;;;;0.30;0.30;;;17.80;97.50;;;;;;5081151;28;20433;-78
2024/04/04 07:56:38;;;;;;;0.40;0.30;;;17.90;97.40;;;;;;5083680;28;20529;-78
2024/04/04 07:59:03;;;;;;;0.60;0.60;;;18.00;97.90;;;;;;5074066;28;21084;-78
2024/04/04 08:01:29;;;;;;;0.30;0.20;;;18.20;97.40;;;;;;5082689;28;20569;-78
2024/04/04 08:03:55;;;;;;;0.30;0.20;;;18.30;97.00;;;;;;5076491;28;20237;-75
2024/04/04 08:06:21;;;;;;;0.40;0.40;;;18.40;96.90;;;;;;5081356;28;20880;-75
2024/04/04 08:08:47;;;;;;;0.30;0.20;;;18.50;96.90;;;;;;5077632;28;20433;-78
2024/04/04 08:11:14;;;;;;;0.83;0.70;;;18.60;96.70;;;;;;5084211;28;20187;-78
2024/04/04 08:13:40;;;;;;;0.30;0.20;;;18.80;96.90;;;;;;5096053;28;20435;-78
2024/04/04 08:16:06;;;;;;;0.30;0.20;;;18.90;96.10;;;;;;5084253;28;20464;-75
2024/04/04 08:18:31;;;;;;;0.40;0.20;;;19.00;95.80;;;;;;5085769;28;20790;-75
2024/04/04 08:20:57;;;;;;;0.30;0.20;;;19.10;95.90;;;;;;5085127;28;20602;-75
2024/04/04 08:23:24;;;;;;;0.30;0.20;;;19.20;96.10;;;;;;5084647;28;20568;-79
2024/04/04 08:26:00;;;;;;;0.30;0.20;;;19.20;95.40;;;;;;5085202;28;20347;-75
2024/04/04 08:28:27;;;;;;;0.30;0.20;;;19.20;95.40;;;;;;5084783;28;20459;-75
2024/04/04 08:31:10;;;;;;;0.40;0.30;;;19.40;95.70;;;;;;5081105;28;20531;-75
2024/04/04 08:33:36;;;;;;;0.30;0.20;;;19.70;95.80;;;;;;5082037;28;20727;-78
2024/04/04 08:36:02;;;;;;;0.30;0.30;;;19.90;95.70;;;;;;5080994;28;21179;-75
2024/04/04 08:38:28;;;;;;;0.30;0.20;;;20.20;95.40;;;;;;5079382;28;20203;-78
2024/04/04 08:41:04;;;;;;;0.40;0.20;;;20.60;95.10;;;;;;5081440;28;20545;-75
2024/04/04 08:43:31;;;;;;;0.40;0.40;;;21.30;94.80;;;;;;5080462;28;20428;-75
2024/04/04 08:46:01;;;;;;;0.40;0.20;;;22.30;93.90;;;;;;5080084;28;20437;-79
2024/04/04 08:48:27;;;;;;;0.40;0.30;;;23.20;93.10;;;;;;5083914;28;20979;-77
2024/04/04 08:50:54;;;;;;;0.30;0.20;;;24.10;92.30;;;;;;5084758;28;20435;-75
2024/04/04 08:53:22;;;;;;;0.40;0.30;;;24.90;91.10;;;;;;5084822;28;20428;-79
2024/04/04 08:55:51;;;;;;;0.30;0.20;;;25.50;90.80;;;;;;5072667;28;20515;-78
2024/04/04 08:58:20;;;;;;;0.30;0.30;;;26.00;89.50;;;;;;5064348;28;20471;-76
2024/04/04 09:00:46;;;;;;;0.30;0.20;;;26.50;88.20;;;;;;5077497;28;20702;-78
2024/04/04 09:03:12;;;;;;;1.17;0.67;;;26.80;86.80;;;;;;5073193;28;20886;-78
2024/04/04 09:05:45;;;;;;;0.30;0.20;;;27.20;84.40;;;;;;5076827;28;20200;-79
2024/04/04 09:08:12;;;;;;;1.07;1.07;;;27.30;84.60;;;;;;5085267;28;20439;-79
2024/04/04 09:10:41;;;;;;;0.87;0.87;;;27.30;83.80;;;;;;5100638;28;20413;-76
2024/04/04 09:13:07;;;;;;;0.40;0.40;;;27.20;84.00;;;;;;5080187;28;20450;-79
2024/04/04 09:15:36;;;;;;;0.30;0.23;;;27.00;83.40;;;;;;5080361;28;20413;-79
2024/04/04 09:18:05;;;;;;;0.30;0.20;;;27.00;82.50;;;;;;5080733;28;21062;-79
2024/04/04 09:20:32;;;;;;;0.30;0.20;;;26.80;81.80;;;;;;5081986;28;20487;-78
2024/04/04 09:23:01;;;;;;;0.30;0.20;;;26.90;81.50;;;;;;5080555;28;20953;-75
2024/04/04 09:25:31;;;;;;;0.30;0.20;;;26.90;81.30;;;;;;5081834;28;20405;-78
2024/04/04 09:27:59;;;;;;;0.40;0.40;;;26.70;80.70;;;;;;5081433;28;20666;-79
2024/04/04 09:30:27;;;;;;;0.30;0.20;;;26.70;80.70;;;;;;5081972;28;20806;-78
2024/04/04 09:32:54;;;;;;;0.30;0.20;;;26.50;80.60;;;;;;5083091;28;20449;-79
2024/04/04 09:35:21;;;;;;;0.30;0.20;;;26.40;80.80;;;;;;5083626;28;20417;-75
2024/04/04 09:37:47;;;;;;;0.63;0.63;;;26.20;81.30;;;;;;5080637;28;20485;-75
2024/04/04 09:40:13;;;;;;;0.30;0.20;;;25.90;79.80;;;;;;5082995;28;20397;-75
2024/04/04 09:42:42;;;;;;;0.30;0.20;;;25.60;81.50;;;;;;5081215;28;20515;-81
2024/04/04 09:45:15;;;;;;;0.60;0.60;;;25.30;81.90;;;;;;5079920;28;20468;-81
2024/04/04 09:47:45;;;;;;;0.30;0.20;;;25.00;82.20;;;;;;5081837;28;20487;-79
2024/04/04 09:50:13;;;;;;;0.30;0.20;;;24.60;82.70;;;;;;5082359;28;20459;-78
2024/04/04 09:52:39;;;;;;;0.30;0.20;;;24.20;83.50;;;;;;5080780;28;20495;-75
2024/04/04 09:55:13;;;;;;;0.30;0.27;;;23.90;83.70;;;;;;5079287;28;20947;-79
2024/04/04 09:57:40;;;;;;;0.30;0.20;;;23.60;84.70;;;;;;5076412;28;20279;-75
2024/04/04 10:00:16;;;;;;;0.40;0.40;;;23.50;86.10;;;;;;5077222;28;21193;-75
2024/04/04 10:02:48;;;;;;;0.30;0.20;;;23.30;84.50;;;;;;5075566;28;20491;-75
2024/04/04 10:05:18;;;;;;;0.30;0.30;;;23.10;85.60;;;;;;5078462;28;20431;-76
2024/04/04 10:07:48;;;;;;;0.30;0.20;;;22.90;85.80;;;;;;5079407;28;20458;-75
2024/04/04 10:10:19;;;;;;;0.30;0.20;;;22.90;86.10;;;;;;5081638;28;21109;-75
2024/04/04 10:12:52;;;;;;;0.30;0.20;;;22.70;86.40;;;;;;5083273;28;20450;-75
2024/04/04 10:15:19;;;;;;;0.30;0.20;;;22.70;86.30;;;;;;5069025;28;20450;-79
2024/04/04 10:17:55;;;;;;;0.30;0.20;;;22.70;87.00;;;;;;5070856;28;20472;-79
2024/04/04 10:20:22;;;;;;;0.30;0.20;;;22.50;87.40;;;;;;5081515;28;20589;-79
2024/04/04 10:23:05;;;;;;;0.30;0.20;;;22.60;87.20;;;;;;5079643;28;21194;-79
2024/04/04 10:25:31;;;;;;;0.30;0.20;;;22.60;87.50;;;;;;5079960;28;20752;-78
2024/04/04 10:28:04;;;;;;;0.30;0.20;;;22.50;87.40;;;;;;5079462;28;20643;-79
2024/04/04 10:30:41;;;;;;;0.30;0.20;;;22.50;87.40;;;;;;5078164;28;20422;-75
2024/04/04 10:33:08;;;;;;;0.30;0.23;;;22.50;87.40;;;;;;5080253;28;20485;-75
2024/04/04 10:35:35;;;;;;;0.30;0.20;;;22.60;87.00;;;;;;5078506;28;21048;-75
2024/04/04 10:38:13;;;;;;;0.30;0.30;;;22.60;86.70;;;;;;5076443;28;20975;-76
2024/04/04 10:40:40;;;;;;;0.30;0.20;;;22.60;86.90;;;;;;5079017;28;20496;-78
2024/04/04 10:43:08;;;;;;;0.30;0.20;;;22.60;88.50;;;;;;5075752;28;20450;-75
2024/04/04 10:45:34;;;;;;;0.77;0.70;;;22.60;87.80;;;;;;5073276;28;20638;-76
2024/04/04 10:48:00;;;;;;;0.30;0.20;;;22.70;87.90;;;;;;5073666;28;20472;-76
2024/04/04 10:50:34;;;;;;;0.30;0.20;;;22.70;87.90;;;;;;5073156;28;20403;-76
2024/04/04 10:53:00;;;;;;;0.30;0.20;;;22.70;88.10;;;;;;5074596;28;20460;-80
2024/04/04 10:55:28;;;;;;;0.30;0.20;;;22.70;87.80;;;;;;5069274;28;20411;-78
2024/04/04 10:57:54;;;;;;;0.30;0.30;;;22.80;88.40;;;;;;5071998;28;20473;-79
2024/04/04 11:00:23;;;;;;;0.30;0.20;;;22.70;86.80;;;;;;5064362;28;20415;-76
2024/04/04 11:02:50;;;;;;;0.30;0.20;;;22.60;86.90;;;;;;5073921;28;20863;-76
2024/04/04 11:05:23;;;;;;;0.30;0.20;;;22.60;87.50;;;;;;5068504;28;20406;-76
2024/04/04 11:07:57;;;;;;;0.30;0.20;;;22.60;87.70;;;;;;5075340;28;20453;-76
2024/04/04 11:10:24;;;;;;;0.30;0.20;;;22.50;88.10;;;;;;5069668;28;20406;-76
2024/04/04 11:12:49;;;;;;;0.30;0.20;;;22.50;88.80;;;;;;5076450;28;20462;-79
2024/04/04 11:15:15;;;;;;;0.30;0.20;;;22.50;88.60;;;;;;5070174;28;20405;-80
2024/04/04 11:17:41;;;;;;;0.30;0.20;;;22.50;87.60;;;;;;5077056;28;20207;-76
2024/04/04 11:20:16;;;;;;;0.30;0.20;;;22.50;87.40;;;;;;5071675;28;20169;-75
2024/04/04 11:22:43;;;;;;;0.30;0.20;;;22.50;87.70;;;;;;5074655;28;20449;-75
2024/04/04 11:25:09;;;;;;;0.30;0.20;;;22.40;87.80;;;;;;5072380;28;20816;-75
2024/04/04 11:27:36;;;;;;;0.30;0.20;;;22.30;87.40;;;;;;5074835;28;20511;-75
2024/04/04 11:30:03;;;;;;;0.30;0.20;;;22.30;87.70;;;;;;5074172;28;20601;-79
2024/04/04 11:32:29;;;;;;;0.30;0.20;;;22.30;88.20;;;;;;5077767;28;20470;-75
2024/04/04 11:34:54;;;;;;;0.30;0.30;;;22.30;88.10;;;;;;5077791;28;20421;-77
2024/04/04 11:37:20;;;;;;;0.30;0.20;;;22.30;88.00;;;;;;5078974;28;20468;-75
2024/04/04 11:39:46;;;;;;;0.30;0.20;;;22.30;88.50;;;;;;5076285;28;20177;-78
2024/04/04 11:42:11;;;;;;;0.30;0.20;;;22.20;88.30;;;;;;5078882;28;20224;-78
2024/04/04 11:44:37;;;;;;;0.30;0.20;;;22.20;89.10;;;;;;5074571;28;20195;-76
2024/04/04 11:47:03;;;;;;;0.30;0.20;;;22.10;89.10;;;;;;5081125;28;20208;-75
2024/04/04 11:49:30;;;;;;;0.30;0.30;;;22.10;89.40;;;;;;5072641;28;20173;-78
2024/04/04 11:51:56;;;;;;;0.30;0.20;;;22.00;89.50;;;;;;5078503;28;20432;-75
2024/04/04 11:54:23;;;;;;;0.30;0.20;;;22.00;89.80;;;;;;5079773;28;20652;-75
2024/04/04 11:56:48;;;;;;;0.30;0.20;;;21.90;90.00;;;;;;5075088;28;20421;-75
2024/04/04 11:59:14;;;;;;;0.30;0.20;;;21.90;90.00;;;;;;5068566;28;20762;-78
2024/04/04 12:01:40;;;;;;;0.30;0.20;;;21.80;90.10;;;;;;5075130;28;20783;-78
2024/04/04 12:04:08;;;;;;;0.30;0.20;;;21.70;90.10;;;;;;5068401;28;20188;-78
2024/04/04 12:06:34;;;;;;;0.30;0.20;;;21.70;90.40;;;;;;5071380;28;20226;-78
2024/04/04 12:09:00;;;;;;;0.30;0.20;;;21.70;90.50;;;;;;5068375;28;20437;-78
2024/04/04 12:11:25;;;;;;;0.30;0.20;;;21.80;90.60;;;;;;5076107;28;20177;-75
2024/04/04 12:13:52;;;;;;;3.13;2.93;;;21.80;90.50;;;;;;5068442;28;20268;-78
2024/04/04 12:16:21;;;;;;;0.30;0.20;;;21.80;90.60;;;;;;5080699;28;20184;-75
2024/04/04 12:21:31;;;;;;;0.30;0.20;;;21.80;90.10;;;;;;5071873;28;20576;-77
2024/04/04 12:23:57;;;;;;;0.30;0.20;;;21.90;89.70;;;;;;5080088;28;20520;-78
2024/04/04 12:26:23;;;;;;;0.30;0.20;;;21.90;90.00;;;;;;5074836;28;20206;-78
2024/04/04 12:28:53;;;;;;;0.30;0.20;;;21.90;90.00;;;;;;5079889;28;20670;-75
2024/04/04 12:31:19;;;;;;;0.30;0.20;;;22.00;90.10;;;;;;5076557;28;20425;-78
2024/04/04 12:33:45;;;;;;;0.30;0.20;;;22.00;90.00;;;;;;5080021;28;20524;-75
2024/04/04 12:36:11;;;;;;;0.30;0.20;;;22.00;89.80;;;;;;5072415;28;20437;-78
2024/04/04 12:38:37;;;;;;;0.30;0.20;;;22.00;89.70;;;;;;5080095;28;20522;-78
2024/04/04 12:41:02;;;;;;;0.30;0.20;;;22.00;89.70;;;;;;5074470;28;20231;-76
2024/04/04 12:43:28;;;;;;;0.30;0.20;;;22.00;89.80;;;;;;5074220;28;20694;-75
2024/04/04 12:46:01;;;;;;;0.30;0.20;;;22.10;89.80;;;;;;5074681;28;20229;-78
2024/04/04 12:48:27;;;;;;;0.30;0.20;;;22.10;89.60;;;;;;5082309;28;20201;-77